createdAt,value
2019-01-19T00:02:05.017Z,97835.56
2019-01-19T00:05:10.201Z,97840.50
2019-01-19T00:07:47.751Z,97835.55
2019-01-19T00:10:55.075Z,97839.28
2019-01-19T00:13:45.828Z,97836.73
2019-01-19T00:16:28.724Z,97838.84
2019-01-19T00:19:39.459Z,97843.53
2019-01-19T00:22:25.532Z,97841.34
2019-01-19T00:25:20.882Z,97842.17
2019-01-19T00:27:55.035Z,97841.35
2019-01-19T00:30:40.986Z,97844.92
2019-01-19T00:33:23.656Z,97834.06
2019-01-19T00:36:12.810Z,97835.20
2019-01-19T00:38:58.468Z,97836.69
2019-01-19T00:41:53.927Z,97839.73
2019-01-19T00:44:40.169Z,97845.52
2019-01-19T00:47:36.638Z,97844.13
2019-01-19T00:50:25.790Z,97853.73
2019-01-19T00:53:05.758Z,97851.96
2019-01-19T00:56:25.270Z,97858.50
2019-01-19T00:58:59.473Z,97859.55
2019-01-19T01:01:36.599Z,97863.75
2019-01-19T01:04:31.367Z,97856.36
2019-01-19T01:07:29.516Z,97855.31
2019-01-19T01:10:12.531Z,97853.00
2019-01-19T01:12:52.725Z,97851.98
2019-01-19T01:15:46.596Z,97852.47
2019-01-19T01:18:34.927Z,97852.44
2019-01-19T01:21:28.803Z,97851.16
2019-01-19T01:24:34.887Z,97850.81
2019-01-19T01:27:17.882Z,97844.36
2019-01-19T01:30:00.799Z,97844.25
2019-01-19T01:32:55.800Z,97839.91
2019-01-19T01:35:54.173Z,97828.91
2019-01-19T01:38:51.211Z,97834.42
2019-01-19T01:41:50.301Z,97831.67
2019-01-19T01:44:36.696Z,97831.39
2019-01-19T01:47:44.050Z,97824.36
2019-01-19T01:50:20.951Z,97817.55
2019-01-19T01:53:27.345Z,97820.14
2019-01-19T01:55:56.856Z,97819.10
2019-01-19T01:58:31.037Z,97818.30
2019-01-19T02:01:10.904Z,97815.71
2019-01-19T02:04:19.287Z,97810.35
2019-01-19T02:06:58.448Z,97813.08
2019-01-19T02:10:02.756Z,97813.27
2019-01-19T02:13:06.970Z,97811.42
2019-01-19T02:15:55.708Z,97809.39
2019-01-19T02:18:44.308Z,97801.27
2019-01-19T02:21:39.662Z,97804.02
2019-01-19T02:24:40.798Z,97805.75
2019-01-19T02:27:23.875Z,97799.22
2019-01-19T02:30:22.073Z,97796.04
2019-01-19T02:33:32.535Z,97794.11
2019-01-19T02:36:18.806Z,97794.42
2019-01-19T02:39:16.839Z,97786.44
2019-01-19T02:42:22.830Z,97791.23
2019-01-19T02:45:11.232Z,97782.96
2019-01-19T02:48:06.288Z,97782.67
2019-01-19T02:50:54.983Z,97772.48
2019-01-19T02:53:50.390Z,97778.03
2019-01-19T02:56:39.559Z,97779.91
2019-01-19T02:59:17.429Z,97774.81
2019-01-19T03:01:57.181Z,97776.55
2019-01-19T03:04:46.297Z,97776.58
2019-01-19T03:07:35.475Z,97775.14
2019-01-19T03:10:35.190Z,97777.04
2019-01-19T03:13:21.562Z,97775.28
2019-01-19T03:16:25.576Z,97776.48
2019-01-19T03:19:35.856Z,97768.94
2019-01-19T03:22:24.862Z,97763.71
2019-01-19T03:25:07.663Z,97766.27
2019-01-19T03:28:05.916Z,97761.83
2019-01-19T03:30:54.436Z,97763.84
2019-01-19T03:33:55.946Z,97761.21
2019-01-19T03:37:03.565Z,97762.42
2019-01-19T03:39:55.498Z,97760.52
2019-01-19T03:42:54.708Z,97763.98
2019-01-19T03:46:07.346Z,97766.06
2019-01-19T03:49:09.399Z,97773.70
2019-01-19T03:51:46.642Z,97770.89
2019-01-19T03:54:26.532Z,97768.31
2019-01-19T03:57:24.653Z,97764.42
2019-01-19T04:00:19.844Z,97762.85
2019-01-19T04:03:26.831Z,97755.02
2019-01-19T04:06:03.788Z,97755.88
2019-01-19T04:08:55.857Z,97759.41
2019-01-19T04:11:35.621Z,97761.17
2019-01-19T04:14:33.417Z,97765.77
2019-01-19T04:17:31.655Z,97761.41
2019-01-19T04:20:25.153Z,97760.50
2019-01-19T04:22:55.254Z,97766.79
2019-01-19T04:25:29.945Z,97768.07
2019-01-19T04:28:01.023Z,97766.14
2019-01-19T04:30:30.534Z,97770.48
2019-01-19T04:33:00.046Z,97766.98
2019-01-19T04:35:29.510Z,97767.74
2019-01-19T04:37:59.005Z,97767.09
2019-01-19T04:40:28.496Z,97759.45
2019-01-19T04:42:58.246Z,97763.81
2019-01-19T04:45:27.705Z,97762.78
2019-01-19T04:47:57.238Z,97759.78
2019-01-19T04:50:26.746Z,97762.41
2019-01-19T04:52:56.217Z,97759.95
2019-01-19T04:55:25.717Z,97758.20
2019-01-19T04:57:55.201Z,97763.38
2019-01-19T05:00:24.893Z,97760.66
2019-01-19T05:02:54.389Z,97764.48
2019-01-19T05:05:23.871Z,97759.20
2019-01-19T05:07:53.375Z,97761.41
2019-01-19T05:10:22.851Z,97764.03
2019-01-19T05:12:52.325Z,97763.77
2019-01-19T05:15:21.847Z,97764.66
2019-01-19T05:17:51.325Z,97761.64
2019-01-19T05:20:20.814Z,97770.34
2019-01-19T05:22:50.306Z,97763.90
2019-01-19T05:25:19.782Z,97759.99
2019-01-19T05:27:49.264Z,97760.44
2019-01-19T05:30:20.959Z,97759.81
2019-01-19T05:32:50.554Z,97759.02
2019-01-19T05:35:20.227Z,97759.18
2019-01-19T05:37:49.731Z,97759.61
2019-01-19T05:40:19.217Z,97763.41
2019-01-19T05:42:48.686Z,97762.97
2019-01-19T05:45:18.190Z,97766.39
2019-01-19T05:47:47.679Z,97766.66
2019-01-19T05:50:20.057Z,97765.68
2019-01-19T05:52:49.557Z,97766.89
2019-01-19T05:55:19.035Z,97766.20
2019-01-19T05:57:48.522Z,97762.60
2019-01-19T06:00:23.725Z,97758.47
2019-01-19T06:02:53.208Z,97768.37
2019-01-19T06:05:22.726Z,97762.47
2019-01-19T06:07:52.263Z,97762.73
2019-01-19T06:10:21.779Z,97758.59
2019-01-19T06:12:51.277Z,97757.58
2019-01-19T06:15:20.780Z,97755.87
2019-01-19T06:17:50.270Z,97755.23
2019-01-19T06:20:19.752Z,97754.61
2019-01-19T06:22:49.242Z,97761.89
2019-01-19T06:25:18.753Z,97752.54
2019-01-19T06:27:48.283Z,97758.97
2019-01-19T06:30:23.376Z,97760.91
2019-01-19T06:32:52.863Z,97760.09
2019-01-19T06:35:22.352Z,97757.81
2019-01-19T06:37:51.923Z,97757.81
2019-01-19T06:40:21.428Z,97756.50
2019-01-19T06:42:50.895Z,97761.46
2019-01-19T06:45:23.613Z,97759.09
2019-01-19T06:47:53.092Z,97751.71
2019-01-19T06:50:22.577Z,97750.20
2019-01-19T06:52:52.108Z,97753.48
2019-01-19T06:55:29.967Z,97756.15
2019-01-19T06:57:59.483Z,97757.48
2019-01-19T07:00:28.979Z,97758.99
2019-01-19T07:02:58.458Z,97756.22
2019-01-19T07:05:27.950Z,97752.00
2019-01-19T07:07:57.437Z,97760.41
2019-01-19T07:10:27.424Z,97756.27
2019-01-19T07:12:56.950Z,97754.71
2019-01-19T07:15:26.421Z,97761.02
2019-01-19T07:17:55.901Z,97764.33
2019-01-19T07:20:28.887Z,97768.95
2019-01-19T07:22:58.373Z,97765.73
2019-01-19T07:25:43.377Z,97763.55
2019-01-19T07:28:13.618Z,97765.39
2019-01-19T07:30:43.538Z,97771.47
2019-01-19T07:33:28.310Z,97763.51
2019-01-19T07:35:57.961Z,97763.97
2019-01-19T07:38:27.435Z,97766.28
2019-01-19T07:40:56.905Z,97766.66
2019-01-19T07:43:26.420Z,97766.28
2019-01-19T07:45:55.899Z,97766.48
2019-01-19T07:48:25.395Z,97766.47
2019-01-19T07:50:54.930Z,97763.36
2019-01-19T07:53:24.400Z,97763.52
2019-01-19T07:55:53.888Z,97763.03
2019-01-19T07:58:24.004Z,97763.36
2019-01-19T08:00:53.588Z,97769.59
2019-01-19T08:03:23.130Z,97767.61
2019-01-19T08:05:52.628Z,97760.50
2019-01-19T08:08:22.095Z,97766.39
2019-01-19T08:10:51.541Z,97770.11
2019-01-19T08:13:21.358Z,97768.64
2019-01-19T08:15:50.820Z,97772.19
2019-01-19T08:18:20.296Z,97773.11
2019-01-19T08:20:49.827Z,97767.55
2019-01-19T08:23:19.267Z,97772.22
2019-01-19T08:25:48.735Z,97767.69
2019-01-19T08:28:18.233Z,97769.28
2019-01-19T08:30:47.722Z,97767.39
2019-01-19T08:33:17.206Z,97770.05
2019-01-19T08:35:47.632Z,97767.49
2019-01-19T08:38:17.082Z,97773.16
2019-01-19T08:40:46.556Z,97769.38
2019-01-19T08:43:17.630Z,97773.95
2019-01-19T08:45:47.109Z,97775.91
2019-01-19T08:48:16.979Z,97769.05
2019-01-19T08:50:46.475Z,97776.00
2019-01-19T08:53:15.942Z,97773.86
2019-01-19T08:55:45.396Z,97768.28
2019-01-19T08:58:14.988Z,97773.25
2019-01-19T09:00:44.661Z,97768.31
2019-01-19T09:03:14.136Z,97772.14
2019-01-19T09:05:44.117Z,97776.39
2019-01-19T09:08:13.589Z,97773.03
2019-01-19T09:10:43.057Z,97773.72
2019-01-19T09:13:12.573Z,97784.66
2019-01-19T09:15:42.042Z,97778.95
2019-01-19T09:18:11.673Z,97785.28
2019-01-19T09:20:41.173Z,97782.08
2019-01-19T09:23:12.210Z,97780.51
2019-01-19T09:25:41.691Z,97782.92
2019-01-19T09:28:11.189Z,97781.60
2019-01-19T09:30:40.664Z,97786.02
2019-01-19T09:33:10.129Z,97780.59
2019-01-19T09:35:39.652Z,97780.83
2019-01-19T09:38:09.072Z,97775.77
2019-01-19T09:40:38.542Z,97780.96
2019-01-19T09:43:08.029Z,97774.38
2019-01-19T09:45:37.495Z,97771.99
2019-01-19T09:48:07.092Z,97765.61
2019-01-19T09:50:36.594Z,97763.78
2019-01-19T09:53:06.066Z,97761.11
2019-01-19T09:55:35.538Z,97758.34
2019-01-19T09:58:05.054Z,97756.52
2019-01-19T10:00:37.556Z,97750.15
2019-01-19T10:03:05.722Z,97751.03
2019-01-19T10:05:35.229Z,97751.34
2019-01-19T10:08:04.730Z,97751.89
2019-01-19T10:10:36.056Z,97746.30
2019-01-19T10:13:05.666Z,97751.86
2019-01-19T10:15:35.137Z,97740.67
2019-01-19T10:18:04.604Z,97735.19
2019-01-19T10:20:34.148Z,97737.56
2019-01-19T10:23:03.615Z,97737.85
2019-01-19T10:25:33.133Z,97736.02
2019-01-19T10:28:02.631Z,97732.54
2019-01-19T10:30:32.403Z,97727.91
2019-01-19T10:33:01.870Z,97722.62
2019-01-19T10:35:31.397Z,97718.40
2019-01-19T10:38:00.880Z,97714.37
2019-01-19T10:40:30.427Z,97706.48
2019-01-19T10:43:00.003Z,97707.52
2019-01-19T10:45:30.090Z,97690.02
2019-01-19T10:47:59.560Z,97709.78
2019-01-19T10:50:29.069Z,97708.98
2019-01-19T10:52:58.647Z,97702.02
2019-01-19T10:55:28.222Z,97700.39
2019-01-19T10:57:58.012Z,97703.94
2019-01-19T11:00:30.276Z,97701.22
2019-01-19T11:03:00.463Z,97702.17
2019-01-19T11:05:30.345Z,97699.86
2019-01-19T11:08:03.987Z,97699.11
2019-01-19T11:10:33.227Z,97691.78
2019-01-19T11:13:02.769Z,97680.79
2019-01-19T11:15:32.256Z,97690.66
2019-01-19T11:18:01.723Z,97683.92
2019-01-19T11:20:34.441Z,97678.07
2019-01-19T11:23:04.007Z,97674.02
2019-01-19T11:25:33.519Z,97672.69
2019-01-19T11:28:03.088Z,97662.92
2019-01-19T11:30:33.871Z,97662.61
2019-01-19T11:33:03.359Z,97660.91
2019-01-19T11:35:32.821Z,97656.02
2019-01-19T11:38:02.386Z,97652.04
2019-01-19T11:40:38.881Z,97647.55
2019-01-19T11:43:09.079Z,97642.34
2019-01-19T11:45:38.551Z,97643.22
2019-01-19T11:48:08.028Z,97635.41
2019-01-19T11:50:37.531Z,97629.84
2019-01-19T11:53:06.996Z,97625.36
2019-01-19T11:55:36.573Z,97624.53
2019-01-19T11:58:06.373Z,97625.11
2019-01-19T12:00:40.450Z,97617.84
2019-01-19T12:03:10.997Z,97619.38
2019-01-19T12:05:40.607Z,97615.16
2019-01-19T12:08:10.574Z,97613.11
2019-01-19T12:10:40.075Z,97610.08
2019-01-19T12:13:09.735Z,97603.11
2019-01-19T12:15:39.159Z,97604.83
2019-01-19T12:18:08.622Z,97607.76
2019-01-19T12:20:41.438Z,97603.70
2019-01-19T12:23:11.099Z,97603.80
2019-01-19T12:25:40.561Z,97597.16
2019-01-19T12:28:10.057Z,97595.03
2019-01-19T12:30:39.538Z,97589.67
2019-01-19T12:33:09.001Z,97592.30
2019-01-19T12:35:38.813Z,97586.55
2019-01-19T12:38:08.288Z,97583.46
2019-01-19T12:40:37.752Z,97583.70
2019-01-19T12:43:14.410Z,97580.61
2019-01-19T12:45:55.533Z,97584.00
2019-01-19T12:48:25.035Z,97578.91
2019-01-19T12:50:54.507Z,97578.48
2019-01-19T12:53:23.993Z,97571.13
2019-01-19T12:55:53.499Z,97573.97
2019-01-19T12:58:22.964Z,97575.97
2019-01-19T13:00:52.424Z,97570.76
2019-01-19T13:03:21.935Z,97574.52
2019-01-19T13:06:19.705Z,97566.27
2019-01-19T13:08:49.309Z,97564.56
2019-01-19T13:11:53.888Z,97568.95
2019-01-19T13:14:23.637Z,97564.55
2019-01-19T13:17:20.642Z,97568.30
2019-01-19T13:20:18.725Z,97570.61
2019-01-19T13:23:04.973Z,97562.30
2019-01-19T13:25:41.840Z,97566.06
2019-01-19T13:28:53.679Z,97561.77
2019-01-19T13:31:42.181Z,97563.78
2019-01-19T13:34:27.639Z,97562.18
2019-01-19T13:37:16.842Z,97560.84
2019-01-19T13:40:15.111Z,97556.92
2019-01-19T13:43:01.033Z,97564.21
2019-01-19T13:45:44.126Z,97556.00
2019-01-19T13:48:48.461Z,97559.12
2019-01-19T13:51:25.568Z,97558.55
2019-01-19T13:54:20.842Z,97557.94
2019-01-19T13:56:58.182Z,97554.95
2019-01-19T13:59:41.290Z,97556.20
2019-01-19T14:02:31.094Z,97555.50
2019-01-19T14:05:50.787Z,97561.23
2019-01-19T14:08:37.028Z,97554.77
2019-01-19T14:11:32.454Z,97553.86
2019-01-19T14:14:29.288Z,97548.45
2019-01-19T14:17:39.913Z,97537.64
2019-01-19T14:20:30.652Z,97548.47
2019-01-19T14:23:30.309Z,97539.37
2019-01-19T14:26:19.033Z,97534.08
2019-01-19T14:29:21.682Z,97530.89
2019-01-19T14:32:10.782Z,97529.80
2019-01-19T14:35:18.059Z,97532.64
2019-01-19T14:38:14.653Z,97534.50
2019-01-19T14:41:18.566Z,97534.13
2019-01-19T14:43:58.574Z,97533.47
2019-01-19T14:46:54.385Z,97531.86
2019-01-19T14:50:03.351Z,97532.19
2019-01-19T14:52:57.072Z,97524.80
2019-01-19T14:55:36.979Z,97525.58
2019-01-19T14:58:41.204Z,97525.67
2019-01-19T15:01:36.282Z,97525.63
2019-01-19T15:04:19.453Z,97530.98
2019-01-19T15:07:38.522Z,97524.87
2019-01-19T15:10:44.295Z,97522.02
2019-01-19T15:13:35.489Z,97527.69
2019-01-19T15:16:26.210Z,97522.94
2019-01-19T15:19:18.048Z,97522.31
2019-01-19T15:22:25.319Z,97519.23
2019-01-19T15:25:05.517Z,97531.78
2019-01-19T15:28:08.552Z,97521.39
2019-01-19T15:31:13.982Z,97521.48
2019-01-19T15:34:08.963Z,97516.80
2019-01-19T15:37:04.581Z,97521.16
2019-01-19T15:39:42.048Z,97522.20
2019-01-19T15:42:41.962Z,97522.41
2019-01-19T15:45:39.712Z,97522.52
2019-01-19T15:48:45.490Z,97521.91
2019-01-19T15:51:25.757Z,97522.95
2019-01-19T15:54:14.998Z,97517.95
2019-01-19T15:57:18.186Z,97522.23
2019-01-19T16:00:14.490Z,97520.60
2019-01-19T16:03:14.578Z,97515.44
2019-01-19T16:05:54.938Z,97520.70
2019-01-19T16:08:29.160Z,97513.12
2019-01-19T16:11:32.552Z,97516.17
2019-01-19T16:14:33.837Z,97511.84
2019-01-19T16:17:26.345Z,97512.64
2019-01-19T16:20:29.099Z,97515.22
2019-01-19T16:23:33.573Z,97512.20
2019-01-19T16:26:38.158Z,97509.48
2019-01-19T16:29:39.638Z,97504.90
2019-01-19T16:32:31.953Z,97505.28
2019-01-19T16:35:23.579Z,97500.92
2019-01-19T16:38:24.371Z,97499.20
2019-01-19T16:41:10.258Z,97493.67
2019-01-19T16:43:50.214Z,97490.90
2019-01-19T16:46:51.713Z,97485.48
2019-01-19T16:49:41.645Z,97484.95
2019-01-19T16:52:33.480Z,97477.38
2019-01-19T16:55:22.418Z,97481.02
2019-01-19T16:58:35.500Z,97480.66
2019-01-19T17:01:30.493Z,97478.13
2019-01-19T17:04:21.237Z,97477.21
2019-01-19T17:07:01.274Z,97473.33
2019-01-19T17:09:47.604Z,97481.38
2019-01-19T17:12:21.791Z,97483.08
2019-01-19T17:15:16.633Z,97475.89
2019-01-19T17:18:35.085Z,97478.98
2019-01-19T17:21:23.826Z,97479.09
2019-01-19T17:24:09.975Z,97479.91
2019-01-19T17:26:58.366Z,97481.30
2019-01-19T17:30:01.150Z,97485.82
2019-01-19T17:32:43.461Z,97482.06
2019-01-19T17:35:41.155Z,97484.27
2019-01-19T17:38:24.168Z,97485.20
2019-01-19T17:41:37.662Z,97489.05
2019-01-19T17:44:20.339Z,97492.73
2019-01-19T17:47:00.401Z,97492.57
2019-01-19T17:49:58.371Z,97489.55
2019-01-19T17:52:41.222Z,97486.03
2019-01-19T17:55:40.735Z,97485.91
2019-01-19T17:58:46.857Z,97484.75
2019-01-19T18:01:51.370Z,97482.39
2019-01-19T18:04:43.366Z,97484.53
2019-01-19T18:07:43.020Z,97487.48
2019-01-19T18:10:41.116Z,97484.23
2019-01-19T18:13:46.900Z,97487.75
2019-01-19T18:16:29.461Z,97491.23
2019-01-19T18:19:30.534Z,97487.34
2019-01-19T18:22:28.789Z,97491.41
2019-01-19T18:25:08.583Z,97492.84
2019-01-19T18:28:00.830Z,97489.73
2019-01-19T18:30:59.579Z,97494.66
2019-01-19T18:33:42.667Z,97490.42
2019-01-19T18:36:22.906Z,97485.54
2019-01-19T18:39:25.761Z,97489.02
2019-01-19T18:42:28.590Z,97481.42
2019-01-19T18:45:26.176Z,97486.64
2019-01-19T18:48:06.207Z,97488.89
2019-01-19T18:51:01.293Z,97485.27
2019-01-19T18:53:59.426Z,97480.73
2019-01-19T18:56:57.714Z,97485.43
2019-01-19T18:59:59.094Z,97480.62
2019-01-19T19:03:05.064Z,97489.47
2019-01-19T19:06:00.169Z,97484.30
2019-01-19T19:08:37.405Z,97480.33
2019-01-19T19:11:23.513Z,97478.17
2019-01-19T19:14:00.832Z,97475.38
2019-01-19T19:16:56.181Z,97487.03
2019-01-19T19:19:48.336Z,97477.94
2019-01-19T19:22:34.423Z,97481.96
2019-01-19T19:25:49.123Z,97481.05
2019-01-19T19:28:56.511Z,97476.67
2019-01-19T19:31:39.347Z,97466.02
2019-01-19T19:34:28.118Z,97464.05
2019-01-19T19:37:19.076Z,97464.98
2019-01-19T19:40:09.496Z,97474.95
2019-01-19T19:42:56.104Z,97470.36
2019-01-19T19:45:47.106Z,97471.52
2019-01-19T19:48:46.697Z,97478.17
2019-01-19T19:51:58.841Z,97473.02
2019-01-19T19:54:28.335Z,97472.49
2019-01-19T19:57:17.163Z,97438.75
2019-01-19T19:59:46.676Z,97475.73
2019-01-19T20:02:16.158Z,97476.41
2019-01-19T20:04:45.631Z,97476.09
2019-01-19T20:07:15.303Z,97473.35
2019-01-19T20:09:44.769Z,97470.92
2019-01-19T20:12:14.244Z,97467.92
2019-01-19T20:14:43.687Z,97465.00
2019-01-19T20:17:13.186Z,97470.67
2019-01-19T20:19:42.662Z,97463.42
2019-01-19T20:22:12.167Z,97467.40
2019-01-19T20:24:41.642Z,97465.96
2019-01-19T20:27:11.324Z,97465.53
2019-01-19T20:29:41.121Z,97465.64
2019-01-19T20:32:10.596Z,97461.11
2019-01-19T20:34:40.094Z,97465.48
2019-01-19T20:37:09.614Z,97460.59
2019-01-19T20:39:39.122Z,97467.11
2019-01-19T20:42:08.954Z,97455.42
2019-01-19T20:44:38.482Z,97461.44
2019-01-19T20:47:07.966Z,97458.03
2019-01-19T20:49:37.445Z,97457.63
2019-01-19T20:52:06.980Z,97467.17
2019-01-19T20:54:36.463Z,97468.61
2019-01-19T20:57:05.943Z,97468.84
2019-01-19T20:59:35.482Z,97468.32
2019-01-19T21:02:04.945Z,97462.31
2019-01-19T21:04:34.418Z,97464.01
2019-01-19T21:07:04.035Z,97462.19
2019-01-19T21:09:33.697Z,97464.16
2019-01-19T21:12:03.345Z,97460.85
2019-01-19T21:14:32.884Z,97463.62
2019-01-19T21:17:02.358Z,97462.52
2019-01-19T21:19:31.845Z,97463.14
2019-01-19T21:22:01.312Z,97460.55
2019-01-19T21:24:30.873Z,97458.30
2019-01-19T21:27:00.337Z,97459.90
2019-01-19T21:29:29.764Z,97460.27
2019-01-19T21:31:59.362Z,97460.06
2019-01-19T21:34:28.836Z,97458.19
2019-01-19T21:36:58.418Z,97453.87
2019-01-19T21:39:27.915Z,97456.78
2019-01-19T21:41:57.384Z,97463.02
2019-01-19T21:44:26.898Z,97460.25
2019-01-19T21:46:56.744Z,97466.05
2019-01-19T21:49:26.216Z,97461.57
2019-01-19T21:51:55.766Z,97457.56
2019-01-19T21:54:25.239Z,97457.58
2019-01-19T21:56:54.709Z,97459.25
2019-01-19T21:59:24.215Z,97460.38
2019-01-19T22:01:53.692Z,97459.28
2019-01-19T22:04:23.265Z,97459.56
2019-01-19T22:06:52.775Z,97452.72
2019-01-19T22:09:24.132Z,97456.89
2019-01-19T22:11:53.623Z,97452.14
2019-01-19T22:14:23.251Z,97448.61
2019-01-19T22:16:52.724Z,97450.89
2019-01-19T22:19:22.233Z,97449.22
2019-01-19T22:21:51.713Z,97448.29
2019-01-19T22:24:21.172Z,97444.12
2019-01-19T22:26:51.676Z,97434.88
2019-01-19T22:29:21.249Z,97434.28
2019-01-19T22:31:50.738Z,97431.36
2019-01-19T22:34:20.252Z,97426.55
2019-01-19T22:36:49.796Z,97424.95
2019-01-19T22:39:19.281Z,97423.28
2019-01-19T22:41:48.794Z,97422.32
2019-01-19T22:44:18.277Z,97420.40
2019-01-19T22:46:47.790Z,97417.84
2019-01-19T22:49:17.292Z,97414.84
2019-01-19T22:51:47.019Z,97411.16
2019-01-19T22:54:16.643Z,97415.45
2019-01-19T22:56:46.285Z,97407.91
2019-01-19T22:59:15.759Z,97405.03
2019-01-19T23:01:46.273Z,97400.98
2019-01-19T23:04:15.823Z,97398.65
2019-01-19T23:06:45.280Z,97395.23
2019-01-19T23:09:14.767Z,97395.83
2019-01-19T23:11:44.274Z,97392.63
2019-01-19T23:14:13.943Z,97390.72
2019-01-19T23:16:43.474Z,97385.17
2019-01-19T23:19:13.126Z,97386.34
2019-01-19T23:21:42.609Z,97381.53
2019-01-19T23:24:12.087Z,97383.66
2019-01-19T23:26:41.884Z,97379.82
2019-01-19T23:29:11.353Z,97378.26
2019-01-19T23:31:40.830Z,97371.48
2019-01-19T23:34:10.367Z,97371.17
2019-01-19T23:36:40.116Z,97371.11
2019-01-19T23:39:09.688Z,97371.07
2019-01-19T23:41:39.198Z,97366.47
2019-01-19T23:44:08.878Z,97364.13
2019-01-19T23:46:38.439Z,97361.50
2019-01-19T23:49:07.965Z,97356.81
2019-01-19T23:51:37.484Z,97352.81
2019-01-19T23:54:06.989Z,97346.34
2019-01-19T23:56:36.477Z,97345.33
2019-01-19T23:59:06.162Z,97349.86
